This demonstration page uses our WeatherBlox Daily Observations layout. Learn more.

41.55636, -103.73856

Hourly Observations for February 11, 2019

Temp ( °F °C ) Dew Point ( °F °C ) Humidity (%) Winds ( mph kmh ) Pressure ( in mb ) Visibility ( mi km ) Precip ( " mm )
12:58 am 00:58 Clear 23 -5.1 15 -9.2 73 73 S 21 33 29.96 1015 10 16.0934 N/A
1:58 am 01:58 Clear 20 -6.9 14 -10 79 79 S 20 31 29.95 1014 10 16.0934 N/A
2:58 am 02:58 Clear 17 -8.2 14 -10.1 86 86 S 21 33 29.94 1014 10 16.0934 N/A
3:58 am 03:58 Clear 15 -9.2 13 -10.6 90 90 S 22 35 29.93 1014 9 14.48406 N/A
4:58 am 04:58 Clear 15 -9.5 12 -11 89 89 S 22 35 29.91 1013 10 16.0934 N/A
5:58 am 05:58 Mostly Cloudy 15 -9.6 12 -11 90 90 S 23 37 29.87 1012 10 16.0934 N/A
6:58 am 06:58 Mostly Cloudy with Mist and Fog 15 -9.3 14 -10.2 93 93 S 22 35 29.84 1011 3 4.82802 N/A
7:58 am 07:58 Mostly Cloudy with Scattered Snow Showers 16 -9.1 14 -10.1 93 93 S 22 35 29.81 1010 0.25 0.402335 N/A
8:58 am 08:58 Mostly Cloudy with Scattered Snow Showers 16 -8.8 14 -9.9 92 92 S 20 31 29.78 1009 0.25 0.402335 N/A
9:58 am 09:58 Mostly Cloudy with Scattered Snow Showers 16 -8.9 14 -10 92 92 S 15 24 29.74 1007 0.25 0.402335 N/A
10:58 am 10:58 Mostly Cloudy with Light Freezing Drizzle 17 -8.6 14 -9.9 90 90 SSW 17 28 29.75 1007 0.25 0.402335 N/A
11:58 am 11:58 Mostly Cloudy with Light Freezing Rain 16 -8.8 14 -10.2 90 90 S 17 28 29.74 1007 1 1.60934 N/A
12:58 pm 12:58 Mostly Cloudy with Light Freezing Rain 16 -8.7 14 -10 90 90 S 14 22 29.75 1007 1 1.60934 N/A
1:58 pm 13:58 Mostly Cloudy with Light Freezing Rain 17 -8.4 15 -9.7 90 90 S 14 22 29.74 1007 0.25 0.402335 N/A
2:58 pm 14:58 Mostly Cloudy with Light Freezing Rain 17 -8.5 15 -9.7 91 91 WSW 5 7 29.8 1009 1 1.60934 N/A
3:58 pm 15:58 Partly Cloudy with Mist and Fog 18 -7.9 16 -9 92 92 W 3 6 29.85 1011 2.5 4.02335 N/A
4:58 pm 16:58 Sunny 24 -4.5 22 -5.5 93 93 W 16 26 29.84 1011 10 16.0934 N/A
5:58 pm 17:58 Sunny 30 -1 16 -8.8 56 56 WNW 26 43 29.85 1011 10 16.0934 N/A
6:58 pm 18:58 Sunny 24 -4.2 16 -8.7 71 71 NNW 20 31 29.93 1013 10 16.0934 N/A
7:58 pm 19:58 Sunny 26 -3.2 13 -10.6 57 57 NW 18 30 29.91 1013 10 16.0934 N/A

Powered by AerisWeather